sensor_id;sensor_type;location;lat;lon;timestamp;P1;durP1;ratioP1;P2;durP2;ratioP2
22904;SDS011;11619;50.140;8.518;2024-02-23T00:02:21;1.10;;;0.73;;
22904;SDS011;11619;50.140;8.518;2024-02-23T00:04:49;2.80;;;1.17;;
22904;SDS011;11619;50.140;8.518;2024-02-23T00:07:17;3.33;;;0.95;;
22904;SDS011;11619;50.140;8.518;2024-02-23T00:09:46;3.50;;;1.02;;
22904;SDS011;11619;50.140;8.518;2024-02-23T00:12:15;1.55;;;0.70;;
22904;SDS011;11619;50.140;8.518;2024-02-23T00:14:42;3.75;;;0.95;;
22904;SDS011;11619;50.140;8.518;2024-02-23T00:17:09;2.67;;;1.00;;
22904;SDS011;11619;50.140;8.518;2024-02-23T00:19:35;2.63;;;0.90;;
22904;SDS011;11619;50.140;8.518;2024-02-23T00:22:02;4.00;;;1.00;;
22904;SDS011;11619;50.140;8.518;2024-02-23T00:24:33;3.38;;;1.10;;
22904;SDS011;11619;50.140;8.518;2024-02-23T00:26:59;1.40;;;0.77;;
22904;SDS011;11619;50.140;8.518;2024-02-23T00:29:26;4.63;;;1.25;;
22904;SDS011;11619;50.140;8.518;2024-02-23T00:31:53;2.08;;;0.65;;
22904;SDS011;11619;50.140;8.518;2024-02-23T00:34:19;2.28;;;0.90;;
22904;SDS011;11619;50.140;8.518;2024-02-23T00:36:49;4.75;;;1.02;;
22904;SDS011;11619;50.140;8.518;2024-02-23T00:39:15;4.30;;;1.27;;
22904;SDS011;11619;50.140;8.518;2024-02-23T00:41:42;2.60;;;0.95;;
22904;SDS011;11619;50.140;8.518;2024-02-23T00:44:08;3.03;;;1.20;;
22904;SDS011;11619;50.140;8.518;2024-02-23T00:46:35;1.90;;;0.90;;
22904;SDS011;11619;50.140;8.518;2024-02-23T00:49:02;4.20;;;1.30;;
22904;SDS011;11619;50.140;8.518;2024-02-23T00:51:31;2.88;;;0.70;;
22904;SDS011;11619;50.140;8.518;2024-02-23T00:53:58;1.30;;;0.80;;
22904;SDS011;11619;50.140;8.518;2024-02-23T00:56:24;4.07;;;1.30;;
22904;SDS011;11619;50.140;8.518;2024-02-23T00:59:01;5.68;;;1.20;;
22904;SDS011;11619;50.140;8.518;2024-02-23T01:01:27;2.47;;;1.00;;
22904;SDS011;11619;50.140;8.518;2024-02-23T01:03:55;4.15;;;1.42;;
22904;SDS011;11619;50.140;8.518;2024-02-23T01:06:21;3.33;;;1.02;;
22904;SDS011;11619;50.140;8.518;2024-02-23T01:08:47;5.03;;;1.02;;
22904;SDS011;11619;50.140;8.518;2024-02-23T01:11:14;2.85;;;1.02;;
22904;SDS011;11619;50.140;8.518;2024-02-23T01:13:40;6.25;;;1.23;;
22904;SDS011;11619;50.140;8.518;2024-02-23T01:16:07;1.95;;;0.85;;
22904;SDS011;11619;50.140;8.518;2024-02-23T01:18:34;3.65;;;1.17;;
22904;SDS011;11619;50.140;8.518;2024-02-23T01:21:01;5.82;;;1.13;;
22904;SDS011;11619;50.140;8.518;2024-02-23T01:23:27;1.85;;;1.00;;
22904;SDS011;11619;50.140;8.518;2024-02-23T01:25:54;2.97;;;1.00;;
22904;SDS011;11619;50.140;8.518;2024-02-23T01:28:20;1.25;;;0.85;;
22904;SDS011;11619;50.140;8.518;2024-02-23T01:30:47;1.52;;;0.70;;
22904;SDS011;11619;50.140;8.518;2024-02-23T01:33:16;1.50;;;0.95;;
22904;SDS011;11619;50.140;8.518;2024-02-23T01:35:43;1.75;;;0.63;;
22904;SDS011;11619;50.140;8.518;2024-02-23T01:38:10;4.53;;;0.93;;
22904;SDS011;11619;50.140;8.518;2024-02-23T01:40:37;1.90;;;0.70;;
22904;SDS011;11619;50.140;8.518;2024-02-23T01:43:06;1.67;;;0.65;;
22904;SDS011;11619;50.140;8.518;2024-02-23T01:45:42;1.23;;;0.90;;
22904;SDS011;11619;50.140;8.518;2024-02-23T01:48:18;1.73;;;0.68;;
22904;SDS011;11619;50.140;8.518;2024-02-23T01:50:46;2.08;;;0.90;;
22904;SDS011;11619;50.140;8.518;2024-02-23T01:53:13;0.80;;;0.65;;
22904;SDS011;11619;50.140;8.518;2024-02-23T01:55:40;2.60;;;0.70;;
22904;SDS011;11619;50.140;8.518;2024-02-23T01:58:08;0.88;;;0.75;;
22904;SDS011;11619;50.140;8.518;2024-02-23T02:00:35;1.52;;;0.60;;
22904;SDS011;11619;50.140;8.518;2024-02-23T02:03:04;3.05;;;0.73;;
22904;SDS011;11619;50.140;8.518;2024-02-23T02:05:36;1.48;;;0.80;;
22904;SDS011;11619;50.140;8.518;2024-02-23T02:08:03;1.85;;;0.70;;
22904;SDS011;11619;50.140;8.518;2024-02-23T02:10:30;2.45;;;0.77;;
22904;SDS011;11619;50.140;8.518;2024-02-23T02:13:03;3.08;;;0.90;;
22904;SDS011;11619;50.140;8.518;2024-02-23T02:15:31;1.00;;;0.68;;
22904;SDS011;11619;50.140;8.518;2024-02-23T02:17:58;2.55;;;0.80;;
22904;SDS011;11619;50.140;8.518;2024-02-23T02:20:24;2.08;;;1.30;;
22904;SDS011;11619;50.140;8.518;2024-02-23T02:22:52;2.33;;;1.15;;
22904;SDS011;11619;50.140;8.518;2024-02-23T02:25:19;2.75;;;0.98;;
22904;SDS011;11619;50.140;8.518;2024-02-23T02:27:46;7.38;;;1.08;;
22904;SDS011;11619;50.140;8.518;2024-02-23T02:30:12;2.75;;;0.63;;
22904;SDS011;11619;50.140;8.518;2024-02-23T02:32:39;5.25;;;1.10;;
22904;SDS011;11619;50.140;8.518;2024-02-23T02:35:06;2.08;;;0.73;;
22904;SDS011;11619;50.140;8.518;2024-02-23T02:37:33;1.27;;;0.60;;
22904;SDS011;11619;50.140;8.518;2024-02-23T02:40:03;3.72;;;1.02;;
22904;SDS011;11619;50.140;8.518;2024-02-23T03:04:08;2.15;;;0.75;;
22904;SDS011;11619;50.140;8.518;2024-02-23T03:07:17;3.03;;;0.73;;
22904;SDS011;11619;50.140;8.518;2024-02-23T03:27:10;3.28;;;1.42;;
22904;SDS011;11619;50.140;8.518;2024-02-23T04:12:32;4.13;;;0.98;;
22904;SDS011;11619;50.140;8.518;2024-02-23T05:55:35;4.07;;;1.38;;
22904;SDS011;11619;50.140;8.518;2024-02-23T05:58:01;4.47;;;1.50;;
22904;SDS011;11619;50.140;8.518;2024-02-23T06:00:29;3.25;;;1.45;;
22904;SDS011;11619;50.140;8.518;2024-02-23T06:02:57;4.40;;;1.50;;
22904;SDS011;11619;50.140;8.518;2024-02-23T06:05:23;3.95;;;1.85;;
22904;SDS011;11619;50.140;8.518;2024-02-23T06:07:53;5.75;;;1.50;;
22904;SDS011;11619;50.140;8.518;2024-02-23T06:10:20;3.75;;;1.60;;
22904;SDS011;11619;50.140;8.518;2024-02-23T06:12:47;3.47;;;1.75;;
22904;SDS011;11619;50.140;8.518;2024-02-23T06:15:13;4.40;;;1.27;;
22904;SDS011;11619;50.140;8.518;2024-02-23T06:17:40;4.75;;;1.70;;
22904;SDS011;11619;50.140;8.518;2024-02-23T06:20:07;9.50;;;1.85;;
22904;SDS011;11619;50.140;8.518;2024-02-23T06:22:34;4.93;;;1.48;;
22904;SDS011;11619;50.140;8.518;2024-02-23T06:25:02;4.45;;;1.95;;
22904;SDS011;11619;50.140;8.518;2024-02-23T06:27:29;7.05;;;1.90;;
22904;SDS011;11619;50.140;8.518;2024-02-23T06:29:56;5.00;;;1.73;;
22904;SDS011;11619;50.140;8.518;2024-02-23T06:32:22;5.38;;;1.77;;
22904;SDS011;11619;50.140;8.518;2024-02-23T06:34:49;3.58;;;1.70;;
22904;SDS011;11619;50.140;8.518;2024-02-23T06:37:15;4.05;;;1.98;;
22904;SDS011;11619;50.140;8.518;2024-02-23T06:39:42;4.30;;;1.80;;
22904;SDS011;11619;50.140;8.518;2024-02-23T06:42:08;3.13;;;1.63;;
22904;SDS011;11619;50.140;8.518;2024-02-23T06:44:35;6.05;;;1.60;;
22904;SDS011;11619;50.140;8.518;2024-02-23T06:47:01;4.70;;;1.48;;
22904;SDS011;11619;50.140;8.518;2024-02-23T06:49:28;3.97;;;1.70;;
22904;SDS011;11619;50.140;8.518;2024-02-23T06:51:54;3.35;;;1.38;;
22904;SDS011;11619;50.140;8.518;2024-02-23T06:54:21;3.75;;;1.70;;
22904;SDS011;11619;50.140;8.518;2024-02-23T06:56:49;5.32;;;1.83;;
22904;SDS011;11619;50.140;8.518;2024-02-23T06:59:19;3.65;;;1.58;;
22904;SDS011;11619;50.140;8.518;2024-02-23T07:01:49;6.32;;;1.70;;
22904;SDS011;11619;50.140;8.518;2024-02-23T07:04:19;3.22;;;1.58;;
22904;SDS011;11619;50.140;8.518;2024-02-23T07:06:45;4.03;;;1.60;;
22904;SDS011;11619;50.140;8.518;2024-02-23T07:09:12;3.72;;;1.65;;
22904;SDS011;11619;50.140;8.518;2024-02-23T07:11:39;4.05;;;1.48;;
22904;SDS011;11619;50.140;8.518;2024-02-23T07:14:07;1.77;;;1.27;;
22904;SDS011;11619;50.140;8.518;2024-02-23T07:16:38;4.78;;;1.67;;
22904;SDS011;11619;50.140;8.518;2024-02-23T07:19:08;5.05;;;1.50;;
22904;SDS011;11619;50.140;8.518;2024-02-23T07:21:35;5.38;;;1.67;;
22904;SDS011;11619;50.140;8.518;2024-02-23T07:24:05;2.20;;;1.25;;
22904;SDS011;11619;50.140;8.518;2024-02-23T07:26:32;3.38;;;1.50;;
22904;SDS011;11619;50.140;8.518;2024-02-23T07:28:58;6.78;;;1.60;;
22904;SDS011;11619;50.140;8.518;2024-02-23T07:31:25;4.90;;;1.30;;
22904;SDS011;11619;50.140;8.518;2024-02-23T07:33:51;10.98;;;1.70;;
22904;SDS011;11619;50.140;8.518;2024-02-23T07:36:18;5.72;;;1.38;;
22904;SDS011;11619;50.140;8.518;2024-02-23T07:38:45;6.60;;;1.75;;
22904;SDS011;11619;50.140;8.518;2024-02-23T07:41:11;4.85;;;1.90;;
22904;SDS011;11619;50.140;8.518;2024-02-23T07:43:39;6.05;;;1.42;;
22904;SDS011;11619;50.140;8.518;2024-02-23T07:46:06;8.00;;;1.40;;
22904;SDS011;11619;50.140;8.518;2024-02-23T07:48:35;9.80;;;1.98;;
22904;SDS011;11619;50.140;8.518;2024-02-23T07:51:05;7.07;;;1.75;;
22904;SDS011;11619;50.140;8.518;2024-02-23T07:53:31;3.05;;;1.30;;
22904;SDS011;11619;50.140;8.518;2024-02-23T07:55:59;6.18;;;1.58;;
22904;SDS011;11619;50.140;8.518;2024-02-23T07:58:28;4.47;;;1.67;;
22904;SDS011;11619;50.140;8.518;2024-02-23T08:00:54;7.00;;;1.98;;
22904;SDS011;11619;50.140;8.518;2024-02-23T08:03:21;6.47;;;1.50;;
22904;SDS011;11619;50.140;8.518;2024-02-23T08:05:47;3.65;;;1.60;;
22904;SDS011;11619;50.140;8.518;2024-02-23T08:08:14;7.50;;;1.52;;
22904;SDS011;11619;50.140;8.518;2024-02-23T08:10:40;5.65;;;1.38;;
22904;SDS011;11619;50.140;8.518;2024-02-23T08:13:07;4.50;;;1.48;;
22904;SDS011;11619;50.140;8.518;2024-02-23T08:15:34;3.95;;;1.45;;
22904;SDS011;11619;50.140;8.518;2024-02-23T08:18:02;4.47;;;1.35;;
22904;SDS011;11619;50.140;8.518;2024-02-23T08:20:29;4.50;;;1.73;;
22904;SDS011;11619;50.140;8.518;2024-02-23T08:22:55;7.13;;;1.52;;
22904;SDS011;11619;50.140;8.518;2024-02-23T08:25:22;4.72;;;1.60;;
22904;SDS011;11619;50.140;8.518;2024-02-23T08:27:48;9.55;;;1.80;;
22904;SDS011;11619;50.140;8.518;2024-02-23T08:30:15;3.70;;;1.60;;
22904;SDS011;11619;50.140;8.518;2024-02-23T08:32:42;5.63;;;1.52;;
22904;SDS011;11619;50.140;8.518;2024-02-23T08:35:09;5.50;;;1.60;;
22904;SDS011;11619;50.140;8.518;2024-02-23T08:37:35;7.10;;;2.08;;
22904;SDS011;11619;50.140;8.518;2024-02-23T08:40:02;4.45;;;1.30;;
22904;SDS011;11619;50.140;8.518;2024-02-23T08:42:29;7.53;;;1.80;;
22904;SDS011;11619;50.140;8.518;2024-02-23T08:44:55;8.77;;;1.73;;
22904;SDS011;11619;50.140;8.518;2024-02-23T08:47:22;5.53;;;1.70;;
22904;SDS011;11619;50.140;8.518;2024-02-23T08:49:48;6.32;;;1.67;;
22904;SDS011;11619;50.140;8.518;2024-02-23T08:52:15;4.35;;;1.50;;
22904;SDS011;11619;50.140;8.518;2024-02-23T08:54:41;5.35;;;1.73;;
22904;SDS011;11619;50.140;8.518;2024-02-23T08:57:08;7.18;;;2.10;;
22904;SDS011;11619;50.140;8.518;2024-02-23T08:59:34;7.03;;;1.63;;
22904;SDS011;11619;50.140;8.518;2024-02-23T09:02:01;5.68;;;1.77;;
22904;SDS011;11619;50.140;8.518;2024-02-23T09:04:28;8.90;;;1.80;;
22904;SDS011;11619;50.140;8.518;2024-02-23T09:06:58;5.75;;;1.63;;
22904;SDS011;11619;50.140;8.518;2024-02-23T09:09:24;8.48;;;1.88;;
22904;SDS011;11619;50.140;8.518;2024-02-23T09:11:51;5.70;;;1.92;;
22904;SDS011;11619;50.140;8.518;2024-02-23T09:14:18;6.78;;;1.98;;
22904;SDS011;11619;50.140;8.518;2024-02-23T09:16:44;7.15;;;1.80;;
22904;SDS011;11619;50.140;8.518;2024-02-23T09:19:12;8.05;;;1.98;;
22904;SDS011;11619;50.140;8.518;2024-02-23T09:21:39;7.75;;;2.10;;
22904;SDS011;11619;50.140;8.518;2024-02-23T09:24:05;5.78;;;1.70;;
22904;SDS011;11619;50.140;8.518;2024-02-23T09:26:32;4.95;;;1.65;;
22904;SDS011;11619;50.140;8.518;2024-02-23T09:28:58;5.97;;;1.52;;
22904;SDS011;11619;50.140;8.518;2024-02-23T09:31:25;7.28;;;1.90;;
22904;SDS011;11619;50.140;8.518;2024-02-23T09:33:54;4.05;;;1.90;;
22904;SDS011;11619;50.140;8.518;2024-02-23T09:36:21;7.13;;;1.80;;
22904;SDS011;11619;50.140;8.518;2024-02-23T09:38:48;8.55;;;2.03;;
22904;SDS011;11619;50.140;8.518;2024-02-23T09:41:19;10.73;;;1.85;;
22904;SDS011;11619;50.140;8.518;2024-02-23T09:43:47;12.35;;;2.45;;
22904;SDS011;11619;50.140;8.518;2024-02-23T09:46:17;10.65;;;2.08;;
22904;SDS011;11619;50.140;8.518;2024-02-23T09:48:44;3.67;;;1.90;;
22904;SDS011;11619;50.140;8.518;2024-02-23T09:51:11;9.60;;;1.88;;
22904;SDS011;11619;50.140;8.518;2024-02-23T09:53:38;6.80;;;2.00;;
22904;SDS011;11619;50.140;8.518;2024-02-23T09:56:05;6.15;;;1.92;;
22904;SDS011;11619;50.140;8.518;2024-02-23T09:58:39;5.72;;;1.83;;
22904;SDS011;11619;50.140;8.518;2024-02-23T10:01:05;4.30;;;1.48;;
22904;SDS011;11619;50.140;8.518;2024-02-23T10:03:32;5.65;;;1.58;;
22904;SDS011;11619;50.140;8.518;2024-02-23T10:05:59;6.38;;;1.73;;
22904;SDS011;11619;50.140;8.518;2024-02-23T10:08:28;4.13;;;1.65;;
22904;SDS011;11619;50.140;8.518;2024-02-23T10:10:55;8.73;;;1.70;;
22904;SDS011;11619;50.140;8.518;2024-02-23T10:13:22;7.32;;;1.67;;
22904;SDS011;11619;50.140;8.518;2024-02-23T10:15:52;7.25;;;1.60;;
22904;SDS011;11619;50.140;8.518;2024-02-23T10:18:39;6.68;;;1.30;;
22904;SDS011;11619;50.140;8.518;2024-02-23T10:21:06;5.97;;;1.70;;
22904;SDS011;11619;50.140;8.518;2024-02-23T10:23:32;7.00;;;1.52;;
22904;SDS011;11619;50.140;8.518;2024-02-23T10:26:04;3.25;;;1.25;;
22904;SDS011;11619;50.140;8.518;2024-02-23T10:28:32;9.85;;;2.25;;
22904;SDS011;11619;50.140;8.518;2024-02-23T10:30:58;3.38;;;1.50;;
22904;SDS011;11619;50.140;8.518;2024-02-23T10:33:27;4.10;;;1.42;;
22904;SDS011;11619;50.140;8.518;2024-02-23T10:35:58;7.72;;;1.75;;
22904;SDS011;11619;50.140;8.518;2024-02-23T10:38:47;5.20;;;1.38;;
22904;SDS011;11619;50.140;8.518;2024-02-23T10:41:15;9.27;;;1.73;;
22904;SDS011;11619;50.140;8.518;2024-02-23T10:43:44;5.53;;;1.50;;
22904;SDS011;11619;50.140;8.518;2024-02-23T10:46:30;8.02;;;1.65;;
22904;SDS011;11619;50.140;8.518;2024-02-23T10:48:58;6.30;;;1.55;;
22904;SDS011;11619;50.140;8.518;2024-02-23T10:51:25;6.53;;;2.22;;
22904;SDS011;11619;50.140;8.518;2024-02-23T10:53:53;9.63;;;1.90;;
22904;SDS011;11619;50.140;8.518;2024-02-23T10:56:19;8.80;;;1.58;;
22904;SDS011;11619;50.140;8.518;2024-02-23T10:58:48;8.18;;;1.60;;
22904;SDS011;11619;50.140;8.518;2024-02-23T11:01:14;6.10;;;1.80;;
22904;SDS011;11619;50.140;8.518;2024-02-23T11:03:42;5.45;;;1.52;;
22904;SDS011;11619;50.140;8.518;2024-02-23T11:06:12;6.28;;;1.80;;
22904;SDS011;11619;50.140;8.518;2024-02-23T11:08:39;8.43;;;1.52;;
22904;SDS011;11619;50.140;8.518;2024-02-23T11:11:07;5.95;;;1.30;;
22904;SDS011;11619;50.140;8.518;2024-02-23T11:13:40;7.50;;;1.30;;
22904;SDS011;11619;50.140;8.518;2024-02-23T11:16:09;5.05;;;1.50;;
22904;SDS011;11619;50.140;8.518;2024-02-23T11:18:35;6.60;;;1.80;;
22904;SDS011;11619;50.140;8.518;2024-02-23T11:21:03;5.60;;;1.50;;
22904;SDS011;11619;50.140;8.518;2024-02-23T11:23:40;8.57;;;1.77;;
22904;SDS011;11619;50.140;8.518;2024-02-23T11:26:12;3.85;;;1.38;;
22904;SDS011;11619;50.140;8.518;2024-02-23T11:28:52;8.38;;;1.65;;
22904;SDS011;11619;50.140;8.518;2024-02-23T11:31:28;9.32;;;1.77;;
22904;SDS011;11619;50.140;8.518;2024-02-23T11:33:56;7.28;;;1.48;;
22904;SDS011;11619;50.140;8.518;2024-02-23T11:36:24;6.65;;;1.75;;
22904;SDS011;11619;50.140;8.518;2024-02-23T11:38:54;3.20;;;1.40;;
22904;SDS011;11619;50.140;8.518;2024-02-23T11:41:21;5.25;;;1.30;;
22904;SDS011;11619;50.140;8.518;2024-02-23T11:43:53;4.63;;;1.42;;
22904;SDS011;11619;50.140;8.518;2024-02-23T11:46:21;4.80;;;1.38;;
22904;SDS011;11619;50.140;8.518;2024-02-23T11:48:48;5.78;;;1.17;;
22904;SDS011;11619;50.140;8.518;2024-02-23T11:51:20;3.97;;;1.30;;
22904;SDS011;11619;50.140;8.518;2024-02-23T11:53:47;4.00;;;1.27;;
22904;SDS011;11619;50.140;8.518;2024-02-23T11:56:14;3.83;;;1.10;;
22904;SDS011;11619;50.140;8.518;2024-02-23T11:58:41;7.28;;;1.70;;
22904;SDS011;11619;50.140;8.518;2024-02-23T12:01:08;2.70;;;1.30;;
22904;SDS011;11619;50.140;8.518;2024-02-23T12:03:34;3.72;;;1.35;;
22904;SDS011;11619;50.140;8.518;2024-02-23T12:06:02;4.68;;;1.35;;
22904;SDS011;11619;50.140;8.518;2024-02-23T12:08:29;4.35;;;1.20;;
22904;SDS011;11619;50.140;8.518;2024-02-23T12:10:58;3.17;;;1.13;;
22904;SDS011;11619;50.140;8.518;2024-02-23T12:13:28;5.65;;;1.63;;
22904;SDS011;11619;50.140;8.518;2024-02-23T12:15:55;4.22;;;1.33;;
22904;SDS011;11619;50.140;8.518;2024-02-23T12:18:22;5.50;;;1.58;;
22904;SDS011;11619;50.140;8.518;2024-02-23T12:20:52;3.97;;;1.30;;
22904;SDS011;11619;50.140;8.518;2024-02-23T12:23:19;2.83;;;1.58;;
22904;SDS011;11619;50.140;8.518;2024-02-23T12:25:53;3.90;;;1.17;;
22904;SDS011;11619;50.140;8.518;2024-02-23T12:28:20;5.97;;;1.25;;
22904;SDS011;11619;50.140;8.518;2024-02-23T12:30:57;6.15;;;1.35;;
22904;SDS011;11619;50.140;8.518;2024-02-23T12:33:25;4.35;;;1.50;;
22904;SDS011;11619;50.140;8.518;2024-02-23T12:35:54;3.80;;;1.40;;
22904;SDS011;11619;50.140;8.518;2024-02-23T12:38:21;5.00;;;1.13;;
22904;SDS011;11619;50.140;8.518;2024-02-23T12:40:48;1.67;;;1.20;;
22904;SDS011;11619;50.140;8.518;2024-02-23T12:43:14;5.78;;;1.30;;
22904;SDS011;11619;50.140;8.518;2024-02-23T12:45:41;7.35;;;1.48;;
22904;SDS011;11619;50.140;8.518;2024-02-23T12:48:08;3.63;;;1.60;;
22904;SDS011;11619;50.140;8.518;2024-02-23T12:50:34;5.80;;;1.35;;
22904;SDS011;11619;50.140;8.518;2024-02-23T12:53:00;5.38;;;1.55;;
22904;SDS011;11619;50.140;8.518;2024-02-23T12:55:27;5.15;;;1.38;;
22904;SDS011;11619;50.140;8.518;2024-02-23T12:57:54;5.53;;;1.65;;
22904;SDS011;11619;50.140;8.518;2024-02-23T13:00:20;7.10;;;1.58;;
22904;SDS011;11619;50.140;8.518;2024-02-23T13:02:47;5.05;;;1.50;;
22904;SDS011;11619;50.140;8.518;2024-02-23T13:05:17;8.10;;;1.15;;
22904;SDS011;11619;50.140;8.518;2024-02-23T13:07:44;4.65;;;1.35;;
22904;SDS011;11619;50.140;8.518;2024-02-23T13:10:12;4.75;;;1.30;;
22904;SDS011;11619;50.140;8.518;2024-02-23T13:12:38;6.53;;;1.40;;
22904;SDS011;11619;50.140;8.518;2024-02-23T13:15:05;4.72;;;1.48;;
22904;SDS011;11619;50.140;8.518;2024-02-23T13:17:32;3.10;;;1.20;;
22904;SDS011;11619;50.140;8.518;2024-02-23T13:19:59;10.32;;;1.70;;
22904;SDS011;11619;50.140;8.518;2024-02-23T13:22:36;5.57;;;1.40;;
22904;SDS011;11619;50.140;8.518;2024-02-23T13:25:03;5.20;;;1.38;;
22904;SDS011;11619;50.140;8.518;2024-02-23T13:27:30;6.00;;;1.63;;
22904;SDS011;11619;50.140;8.518;2024-02-23T13:29:57;3.05;;;1.27;;
22904;SDS011;11619;50.140;8.518;2024-02-23T13:32:23;4.00;;;1.35;;
22904;SDS011;11619;50.140;8.518;2024-02-23T13:34:50;4.45;;;1.63;;
22904;SDS011;11619;50.140;8.518;2024-02-23T13:37:18;4.55;;;1.00;;
22904;SDS011;11619;50.140;8.518;2024-02-23T13:39:45;5.30;;;1.35;;
22904;SDS011;11619;50.140;8.518;2024-02-23T13:42:11;3.40;;;1.38;;
22904;SDS011;11619;50.140;8.518;2024-02-23T13:44:38;3.08;;;1.10;;
22904;SDS011;11619;50.140;8.518;2024-02-23T13:47:04;4.82;;;1.15;;
22904;SDS011;11619;50.140;8.518;2024-02-23T13:49:31;5.10;;;1.52;;
22904;SDS011;11619;50.140;8.518;2024-02-23T13:51:58;5.10;;;1.55;;
22904;SDS011;11619;50.140;8.518;2024-02-23T13:54:24;2.35;;;0.90;;
22904;SDS011;11619;50.140;8.518;2024-02-23T13:56:51;5.90;;;1.67;;
22904;SDS011;11619;50.140;8.518;2024-02-23T13:59:17;4.60;;;1.52;;
22904;SDS011;11619;50.140;8.518;2024-02-23T14:01:44;4.82;;;1.33;;
22904;SDS011;11619;50.140;8.518;2024-02-23T14:04:11;4.05;;;1.48;;
22904;SDS011;11619;50.140;8.518;2024-02-23T14:06:38;3.78;;;1.00;;
22904;SDS011;11619;50.140;8.518;2024-02-23T14:09:04;5.00;;;1.48;;
22904;SDS011;11619;50.140;8.518;2024-02-23T14:11:32;4.13;;;1.65;;
22904;SDS011;11619;50.140;8.518;2024-02-23T14:13:59;2.67;;;1.00;;
22904;SDS011;11619;50.140;8.518;2024-02-23T14:16:25;4.65;;;1.23;;
22904;SDS011;11619;50.140;8.518;2024-02-23T14:18:52;2.08;;;1.15;;
22904;SDS011;11619;50.140;8.518;2024-02-23T14:21:18;3.20;;;1.30;;
22904;SDS011;11619;50.140;8.518;2024-02-23T14:23:47;5.38;;;1.55;;
22904;SDS011;11619;50.140;8.518;2024-02-23T14:26:14;2.90;;;1.20;;
22904;SDS011;11619;50.140;8.518;2024-02-23T14:28:41;3.67;;;1.08;;
22904;SDS011;11619;50.140;8.518;2024-02-23T14:31:07;5.47;;;1.30;;
22904;SDS011;11619;50.140;8.518;2024-02-23T14:33:34;3.50;;;1.25;;
22904;SDS011;11619;50.140;8.518;2024-02-23T14:36:01;4.10;;;1.13;;
22904;SDS011;11619;50.140;8.518;2024-02-23T14:38:30;4.28;;;1.20;;
22904;SDS011;11619;50.140;8.518;2024-02-23T14:41:13;5.15;;;1.30;;
22904;SDS011;11619;50.140;8.518;2024-02-23T14:43:40;4.63;;;1.05;;
22904;SDS011;11619;50.140;8.518;2024-02-23T14:46:06;5.97;;;1.58;;
22904;SDS011;11619;50.140;8.518;2024-02-23T14:48:35;1.90;;;0.98;;
22904;SDS011;11619;50.140;8.518;2024-02-23T14:51:04;4.40;;;1.40;;
22904;SDS011;11619;50.140;8.518;2024-02-23T14:53:31;4.47;;;1.10;;
22904;SDS011;11619;50.140;8.518;2024-02-23T14:55:58;2.92;;;1.17;;
22904;SDS011;11619;50.140;8.518;2024-02-23T14:58:24;6.75;;;1.40;;
22904;SDS011;11619;50.140;8.518;2024-02-23T15:00:51;8.45;;;1.38;;
22904;SDS011;11619;50.140;8.518;2024-02-23T15:03:17;4.57;;;1.45;;
22904;SDS011;11619;50.140;8.518;2024-02-23T15:05:43;4.22;;;1.23;;
22904;SDS011;11619;50.140;8.518;2024-02-23T15:08:10;6.00;;;1.27;;
22904;SDS011;11619;50.140;8.518;2024-02-23T15:10:36;3.58;;;0.93;;
22904;SDS011;11619;50.140;8.518;2024-02-23T15:13:03;4.82;;;1.58;;
22904;SDS011;11619;50.140;8.518;2024-02-23T15:15:30;3.55;;;1.08;;
22904;SDS011;11619;50.140;8.518;2024-02-23T15:17:56;7.72;;;1.90;;
22904;SDS011;11619;50.140;8.518;2024-02-23T15:20:23;8.90;;;1.60;;
22904;SDS011;11619;50.140;8.518;2024-02-23T15:22:49;6.68;;;1.40;;
22904;SDS011;11619;50.140;8.518;2024-02-23T15:25:16;6.82;;;2.00;;
22904;SDS011;11619;50.140;8.518;2024-02-23T15:27:42;2.33;;;1.63;;
22904;SDS011;11619;50.140;8.518;2024-02-23T15:30:09;7.78;;;1.40;;
22904;SDS011;11619;50.140;8.518;2024-02-23T15:32:36;4.47;;;1.70;;
22904;SDS011;11619;50.140;8.518;2024-02-23T15:35:03;3.70;;;1.40;;
22904;SDS011;11619;50.140;8.518;2024-02-23T15:37:31;4.82;;;1.45;;
22904;SDS011;11619;50.140;8.518;2024-02-23T15:40:01;4.72;;;1.65;;
22904;SDS011;11619;50.140;8.518;2024-02-23T15:42:30;4.15;;;1.58;;
22904;SDS011;11619;50.140;8.518;2024-02-23T15:44:56;5.85;;;1.60;;
22904;SDS011;11619;50.140;8.518;2024-02-23T15:47:22;2.90;;;1.38;;
22904;SDS011;11619;50.140;8.518;2024-02-23T15:49:49;3.33;;;1.60;;
22904;SDS011;11619;50.140;8.518;2024-02-23T15:52:36;4.50;;;1.65;;
22904;SDS011;11619;50.140;8.518;2024-02-23T15:55:03;6.00;;;1.50;;
22904;SDS011;11619;50.140;8.518;2024-02-23T15:57:33;7.68;;;2.05;;
22904;SDS011;11619;50.140;8.518;2024-02-23T15:59:59;5.05;;;1.67;;
22904;SDS011;11619;50.140;8.518;2024-02-23T16:02:29;3.85;;;1.55;;
22904;SDS011;11619;50.140;8.518;2024-02-23T16:04:57;4.22;;;1.40;;
22904;SDS011;11619;50.140;8.518;2024-02-23T16:07:23;2.60;;;1.50;;
22904;SDS011;11619;50.140;8.518;2024-02-23T16:09:50;4.53;;;1.70;;
22904;SDS011;11619;50.140;8.518;2024-02-23T16:12:16;5.65;;;1.67;;
22904;SDS011;11619;50.140;8.518;2024-02-23T16:14:43;4.40;;;1.90;;
22904;SDS011;11619;50.140;8.518;2024-02-23T16:17:09;4.93;;;1.70;;
22904;SDS011;11619;50.140;8.518;2024-02-23T16:19:36;7.57;;;1.83;;
22904;SDS011;11619;50.140;8.518;2024-02-23T16:22:03;7.68;;;1.90;;
22904;SDS011;11619;50.140;8.518;2024-02-23T16:24:29;4.68;;;1.15;;
22904;SDS011;11619;50.140;8.518;2024-02-23T16:26:56;5.47;;;1.48;;
22904;SDS011;11619;50.140;8.518;2024-02-23T16:29:23;5.20;;;1.58;;
22904;SDS011;11619;50.140;8.518;2024-02-23T16:31:50;6.22;;;1.90;;
22904;SDS011;11619;50.140;8.518;2024-02-23T16:34:16;3.13;;;1.45;;
22904;SDS011;11619;50.140;8.518;2024-02-23T16:36:43;3.95;;;1.60;;
22904;SDS011;11619;50.140;8.518;2024-02-23T16:39:11;5.38;;;1.80;;
22904;SDS011;11619;50.140;8.518;2024-02-23T16:41:37;5.70;;;2.20;;
22904;SDS011;11619;50.140;8.518;2024-02-23T16:44:04;3.53;;;1.90;;
22904;SDS011;11619;50.140;8.518;2024-02-23T16:46:31;6.43;;;3.38;;
22904;SDS011;11619;50.140;8.518;2024-02-23T16:48:58;4.65;;;2.25;;
22904;SDS011;11619;50.140;8.518;2024-02-23T16:51:24;9.32;;;4.10;;
22904;SDS011;11619;50.140;8.518;2024-02-23T16:53:52;5.03;;;2.15;;
22904;SDS011;11619;50.140;8.518;2024-02-23T16:56:19;4.20;;;2.03;;
22904;SDS011;11619;50.140;8.518;2024-02-23T16:58:46;5.78;;;2.10;;
22904;SDS011;11619;50.140;8.518;2024-02-23T17:01:12;6.30;;;2.40;;
22904;SDS011;11619;50.140;8.518;2024-02-23T17:03:42;6.45;;;1.75;;
22904;SDS011;11619;50.140;8.518;2024-02-23T17:06:09;4.80;;;1.60;;
22904;SDS011;11619;50.140;8.518;2024-02-23T17:08:35;5.18;;;1.80;;
22904;SDS011;11619;50.140;8.518;2024-02-23T17:11:02;7.18;;;1.92;;
22904;SDS011;11619;50.140;8.518;2024-02-23T17:13:30;4.38;;;1.90;;
22904;SDS011;11619;50.140;8.518;2024-02-23T17:15:56;3.80;;;1.60;;
22904;SDS011;11619;50.140;8.518;2024-02-23T17:18:23;3.25;;;1.80;;
22904;SDS011;11619;50.140;8.518;2024-02-23T17:20:51;5.50;;;1.98;;
22904;SDS011;11619;50.140;8.518;2024-02-23T17:23:19;4.13;;;1.63;;
22904;SDS011;11619;50.140;8.518;2024-02-23T17:25:45;3.20;;;1.65;;
22904;SDS011;11619;50.140;8.518;2024-02-23T17:28:12;5.10;;;2.03;;
22904;SDS011;11619;50.140;8.518;2024-02-23T17:30:41;3.92;;;1.65;;
22904;SDS011;11619;50.140;8.518;2024-02-23T17:33:08;4.50;;;1.95;;
22904;SDS011;11619;50.140;8.518;2024-02-23T17:35:34;5.22;;;1.88;;
22904;SDS011;11619;50.140;8.518;2024-02-23T17:38:01;7.55;;;1.77;;
22904;SDS011;11619;50.140;8.518;2024-02-23T17:40:29;4.63;;;2.10;;
22904;SDS011;11619;50.140;8.518;2024-02-23T17:42:56;3.08;;;1.77;;
22904;SDS011;11619;50.140;8.518;2024-02-23T17:45:23;3.60;;;1.70;;
22904;SDS011;11619;50.140;8.518;2024-02-23T17:47:49;5.85;;;1.52;;
22904;SDS011;11619;50.140;8.518;2024-02-23T17:50:17;5.55;;;1.60;;
22904;SDS011;11619;50.140;8.518;2024-02-23T17:52:44;5.72;;;1.65;;
22904;SDS011;11619;50.140;8.518;2024-02-23T17:55:10;4.45;;;1.50;;